Sublimity, Oregon
Current Conditions -  °F | °C
As of 6:56 AM on Monday 24 Nov 2014 (Local Time) from KSLE Reporting Station
Clear Clear  
Wind Chill: 44°   Ceiling: Unl
Heat Index: 44°   Visibility: 10mi
Dew Point: 42°   Wind: 3mph
Humidity: 93%   Direction: 150°SSE
Pressure: 30.35"   Gusts: NA
Location:  44.83°N, 122.79°W
Report Text: KSLE 241456Z 15003KT 10SM CLR 07/06 A3035 RMK AO2 SLP279 T00670056 56001
Loading
Personal Weather Stations






























Interactive Weather Map New forecast layout! Learn more

10-Day Weather Forecast

Advertisements
Track Severe Weather on mobile